sensor_id;sensor_type;location;lat;lon;timestamp;pressure;altitude;pressure_sealevel;temperature;humidity
23016;BME280;11674;52.428;13.584;2023-05-20T00:04:20;102346.41;;;13.66;51.89
23016;BME280;11674;52.428;13.584;2023-05-20T00:09:27;102341.91;;;13.60;52.25
23016;BME280;11674;52.428;13.584;2023-05-20T00:14:34;102345.75;;;13.54;52.30
23016;BME280;11674;52.428;13.584;2023-05-20T00:19:41;102342.66;;;13.45;52.63
23016;BME280;11674;52.428;13.584;2023-05-20T00:24:48;102342.31;;;13.37;52.96
23016;BME280;11674;52.428;13.584;2023-05-20T00:29:55;102336.69;;;13.27;53.59
23016;BME280;11674;52.428;13.584;2023-05-20T00:35:02;102339.97;;;13.14;53.85
23016;BME280;11674;52.428;13.584;2023-05-20T00:40:09;102344.34;;;13.05;54.22
23016;BME280;11674;52.428;13.584;2023-05-20T00:45:17;102351.25;;;12.97;54.66
23016;BME280;11674;52.428;13.584;2023-05-20T00:50:24;102341.38;;;12.85;54.86
23016;BME280;11674;52.428;13.584;2023-05-20T00:55:31;102346.94;;;12.80;54.94
23016;BME280;11674;52.428;13.584;2023-05-20T01:00:38;102345.19;;;12.74;55.45
23016;BME280;11674;52.428;13.584;2023-05-20T01:05:45;102339.88;;;12.67;55.60
23016;BME280;11674;52.428;13.584;2023-05-20T01:16:13;102326.38;;;12.54;56.31
23016;BME280;11674;52.428;13.584;2023-05-20T01:21:23;102323.28;;;12.51;56.54
23016;BME280;11674;52.428;13.584;2023-05-20T01:26:33;102333.25;;;12.47;56.63
23016;BME280;11674;52.428;13.584;2023-05-20T01:31:40;102321.06;;;12.53;56.24
23016;BME280;11674;52.428;13.584;2023-05-20T01:36:47;102319.06;;;12.48;56.82
23016;BME280;11674;52.428;13.584;2023-05-20T01:41:55;102318.28;;;12.53;56.73
23016;BME280;11674;52.428;13.584;2023-05-20T01:47:02;102318.28;;;12.53;56.99
23016;BME280;11674;52.428;13.584;2023-05-20T01:52:09;102322.16;;;12.52;57.61
23016;BME280;11674;52.428;13.584;2023-05-20T01:57:20;102303.56;;;12.57;57.70
23016;BME280;11674;52.428;13.584;2023-05-20T02:02:27;102308.94;;;12.64;57.91
23016;BME280;11674;52.428;13.584;2023-05-20T02:07:35;102314.25;;;12.70;58.03
23016;BME280;11674;52.428;13.584;2023-05-20T02:12:42;102306.78;;;12.76;57.89
23016;BME280;11674;52.428;13.584;2023-05-20T02:17:49;102304.91;;;12.86;57.98
23016;BME280;11674;52.428;13.584;2023-05-20T02:22:56;102302.75;;;12.93;57.79
23016;BME280;11674;52.428;13.584;2023-05-20T02:28:04;102295.28;;;12.99;58.22
23016;BME280;11674;52.428;13.584;2023-05-20T02:33:11;102291.13;;;13.01;58.37
23016;BME280;11674;52.428;13.584;2023-05-20T02:38:18;102294.19;;;13.05;58.16
23016;BME280;11674;52.428;13.584;2023-05-20T02:43:25;102293.13;;;13.11;58.28
23016;BME280;11674;52.428;13.584;2023-05-20T02:48:34;102301.53;;;13.21;58.34
23016;BME280;11674;52.428;13.584;2023-05-20T02:53:41;102309.38;;;13.24;58.31
23016;BME280;11674;52.428;13.584;2023-05-20T02:58:48;102314.97;;;13.29;58.29
23016;BME280;11674;52.428;13.584;2023-05-20T03:03:57;102314.44;;;13.37;58.22
23016;BME280;11674;52.428;13.584;2023-05-20T03:09:04;102321.44;;;13.39;58.38
23016;BME280;11674;52.428;13.584;2023-05-20T03:14:11;102320.06;;;13.47;58.27
23016;BME280;11674;52.428;13.584;2023-05-20T03:19:18;102322.63;;;13.53;58.14
23016;BME280;11674;52.428;13.584;2023-05-20T03:24:25;102326.00;;;13.60;58.02
23016;BME280;11674;52.428;13.584;2023-05-20T03:29:32;102326.91;;;13.71;58.18
23016;BME280;11674;52.428;13.584;2023-05-20T03:34:39;102327.50;;;13.83;57.86
23016;BME280;11674;52.428;13.584;2023-05-20T03:39:46;102325.00;;;13.86;58.02
23016;BME280;11674;52.428;13.584;2023-05-20T03:44:53;102315.78;;;13.91;57.87
23016;BME280;11674;52.428;13.584;2023-05-20T03:50:04;102316.91;;;13.90;57.91
23016;BME280;11674;52.428;13.584;2023-05-20T03:55:11;102320.78;;;13.84;58.15
23016;BME280;11674;52.428;13.584;2023-05-20T04:00:18;102335.84;;;13.78;58.38
23016;BME280;11674;52.428;13.584;2023-05-20T04:05:25;102331.06;;;13.78;58.57
23016;BME280;11674;52.428;13.584;2023-05-20T04:10:34;102325.50;;;13.78;58.45
23016;BME280;11674;52.428;13.584;2023-05-20T04:15:41;102313.53;;;13.78;58.79
23016;BME280;11674;52.428;13.584;2023-05-20T04:20:48;102321.03;;;13.77;59.00
23016;BME280;11674;52.428;13.584;2023-05-20T04:25:55;102322.72;;;13.83;58.86
23016;BME280;11674;52.428;13.584;2023-05-20T04:31:04;102324.13;;;13.86;59.07
23016;BME280;11674;52.428;13.584;2023-05-20T04:36:12;102323.34;;;13.90;58.97
23016;BME280;11674;52.428;13.584;2023-05-20T04:41:19;102323.34;;;13.95;59.25
23016;BME280;11674;52.428;13.584;2023-05-20T04:46:26;102325.00;;;13.91;59.31
23016;BME280;11674;52.428;13.584;2023-05-20T04:51:33;102316.63;;;13.91;59.17
23016;BME280;11674;52.428;13.584;2023-05-20T04:56:40;102304.91;;;13.94;59.34
23016;BME280;11674;52.428;13.584;2023-05-20T05:01:48;102310.22;;;13.96;59.63
23016;BME280;11674;52.428;13.584;2023-05-20T05:06:56;102316.06;;;13.94;59.91
23016;BME280;11674;52.428;13.584;2023-05-20T05:12:03;102320.81;;;13.94;59.99
23016;BME280;11674;52.428;13.584;2023-05-20T05:17:10;102319.72;;;14.00;60.01
23016;BME280;11674;52.428;13.584;2023-05-20T05:22:18;102318.91;;;14.09;59.65
23016;BME280;11674;52.428;13.584;2023-05-20T05:27:25;102322.81;;;14.13;59.90
23016;BME280;11674;52.428;13.584;2023-05-20T05:32:35;102320.09;;;14.23;59.50
23016;BME280;11674;52.428;13.584;2023-05-20T05:37:42;102314.25;;;14.25;59.64
23016;BME280;11674;52.428;13.584;2023-05-20T05:42:49;102314.53;;;14.28;60.04
23016;BME280;11674;52.428;13.584;2023-05-20T05:47:56;102310.91;;;14.38;60.03
23016;BME280;11674;52.428;13.584;2023-05-20T05:53:03;102302.25;;;14.44;59.95
23016;BME280;11674;52.428;13.584;2023-05-20T05:58:12;102303.38;;;14.53;60.21
23016;BME280;11674;52.428;13.584;2023-05-20T06:03:19;102299.47;;;14.59;59.96
23016;BME280;11674;52.428;13.584;2023-05-20T06:08:27;102306.44;;;14.62;60.04
23016;BME280;11674;52.428;13.584;2023-05-20T06:13:34;102288.28;;;14.69;59.90
23016;BME280;11674;52.428;13.584;2023-05-20T06:18:41;102283.25;;;14.81;59.60
23016;BME280;11674;52.428;13.584;2023-05-20T06:23:48;102285.75;;;14.83;59.46
23016;BME280;11674;52.428;13.584;2023-05-20T06:28:55;102301.69;;;14.92;59.62
23016;BME280;11674;52.428;13.584;2023-05-20T06:34:03;102290.47;;;15.02;59.68
23016;BME280;11674;52.428;13.584;2023-05-20T06:39:10;102292.69;;;15.10;59.75
23016;BME280;11674;52.428;13.584;2023-05-20T06:44:18;102289.88;;;15.20;59.63
23016;BME280;11674;52.428;13.584;2023-05-20T06:49:46;102299.59;;;15.48;59.27
23016;BME280;11674;52.428;13.584;2023-05-20T06:54:53;102303.19;;;15.58;59.44
23016;BME280;11674;52.428;13.584;2023-05-20T07:00:01;102301.25;;;15.59;59.05
23016;BME280;11674;52.428;13.584;2023-05-20T07:05:13;102300.31;;;15.73;59.39
23016;BME280;11674;52.428;13.584;2023-05-20T07:10:23;102304.44;;;15.91;59.05
23016;BME280;11674;52.428;13.584;2023-05-20T07:15:29;102297.16;;;15.95;58.84
23016;BME280;11674;52.428;13.584;2023-05-20T07:20:37;102292.09;;;15.97;58.82
23016;BME280;11674;52.428;13.584;2023-05-20T07:25:52;102283.91;;;16.05;58.60
23016;BME280;11674;52.428;13.584;2023-05-20T07:30:59;102271.66;;;15.91;58.40
23016;BME280;11674;52.428;13.584;2023-05-20T07:36:12;102279.56;;;15.84;58.82
23016;BME280;11674;52.428;13.584;2023-05-20T07:41:22;102277.22;;;16.01;58.62
23016;BME280;11674;52.428;13.584;2023-05-20T07:46:30;102273.75;;;16.19;58.60
23016;BME280;11674;52.428;13.584;2023-05-20T07:51:45;102259.84;;;16.48;58.46
23016;BME280;11674;52.428;13.584;2023-05-20T07:56:53;102257.81;;;16.82;58.24
23016;BME280;11674;52.428;13.584;2023-05-20T08:01:59;102253.00;;;17.11;57.99
23016;BME280;11674;52.428;13.584;2023-05-20T08:07:07;102244.22;;;17.46;57.61
23016;BME280;11674;52.428;13.584;2023-05-20T08:12:22;102241.94;;;17.48;57.18
23016;BME280;11674;52.428;13.584;2023-05-20T08:17:31;102246.97;;;17.51;57.42
23016;BME280;11674;52.428;13.584;2023-05-20T08:22:39;102245.25;;;17.55;56.77
23016;BME280;11674;52.428;13.584;2023-05-20T08:27:46;102247.84;;;17.46;56.69
23016;BME280;11674;52.428;13.584;2023-05-20T08:32:53;102245.75;;;17.57;56.68
23016;BME280;11674;52.428;13.584;2023-05-20T08:38:01;102233.38;;;17.58;56.33
23016;BME280;11674;52.428;13.584;2023-05-20T08:43:08;102236.06;;;17.68;56.31
23016;BME280;11674;52.428;13.584;2023-05-20T08:48:16;102232.88;;;17.74;56.55
23016;BME280;11674;52.428;13.584;2023-05-20T08:53:23;102217.72;;;17.94;56.17
23016;BME280;11674;52.428;13.584;2023-05-20T08:58:31;102225.63;;;17.92;56.12
23016;BME280;11674;52.428;13.584;2023-05-20T09:03:38;102221.66;;;18.11;56.02
23016;BME280;11674;52.428;13.584;2023-05-20T09:08:47;102220.66;;;18.21;55.52
23016;BME280;11674;52.428;13.584;2023-05-20T09:13:55;102226.19;;;18.26;55.72
23016;BME280;11674;52.428;13.584;2023-05-20T09:19:04;102219.94;;;18.47;55.47
23016;BME280;11674;52.428;13.584;2023-05-20T09:24:11;102215.19;;;18.61;54.91
23016;BME280;11674;52.428;13.584;2023-05-20T09:29:18;102208.25;;;18.72;54.89
23016;BME280;11674;52.428;13.584;2023-05-20T09:34:25;102212.22;;;18.71;54.64
23016;BME280;11674;52.428;13.584;2023-05-20T09:39:43;102213.06;;;18.72;54.58
23016;BME280;11674;52.428;13.584;2023-05-20T09:44:52;102218.09;;;19.02;54.33
23016;BME280;11674;52.428;13.584;2023-05-20T09:49:59;102204.41;;;19.09;54.16
23016;BME280;11674;52.428;13.584;2023-05-20T09:55:07;102199.13;;;19.07;53.75
23016;BME280;11674;52.428;13.584;2023-05-20T10:00:15;102202.25;;;19.06;53.77
23016;BME280;11674;52.428;13.584;2023-05-20T10:10:45;102195.38;;;19.39;53.40
23016;BME280;11674;52.428;13.584;2023-05-20T10:21:14;102192.84;;;19.64;53.50
23016;BME280;11674;52.428;13.584;2023-05-20T10:26:21;102186.69;;;19.98;52.80
23016;BME280;11674;52.428;13.584;2023-05-20T10:31:28;102194.41;;;20.06;52.60
23016;BME280;11674;52.428;13.584;2023-05-20T10:36:35;102190.16;;;19.95;52.20
23016;BME280;11674;52.428;13.584;2023-05-20T10:41:42;102191.69;;;19.79;52.35
23016;BME280;11674;52.428;13.584;2023-05-20T10:47:00;102173.16;;;19.51;52.01
23016;BME280;11674;52.428;13.584;2023-05-20T10:52:08;102165.47;;;19.43;52.16
23016;BME280;11674;52.428;13.584;2023-05-20T10:57:15;102169.50;;;19.64;52.09
23016;BME280;11674;52.428;13.584;2023-05-20T11:02:22;102162.66;;;19.78;51.79
23016;BME280;11674;52.428;13.584;2023-05-20T11:07:30;102163.09;;;20.07;51.65
23016;BME280;11674;52.428;13.584;2023-05-20T11:12:38;102154.25;;;20.22;51.46
23016;BME280;11674;52.428;13.584;2023-05-20T11:17:53;102144.63;;;20.76;51.44
23016;BME280;11674;52.428;13.584;2023-05-20T11:23:01;102134.88;;;21.29;50.47
23016;BME280;11674;52.428;13.584;2023-05-20T11:28:13;102140.31;;;21.09;50.34
23016;BME280;11674;52.428;13.584;2023-05-20T11:33:24;102132.84;;;21.04;50.02
23016;BME280;11674;52.428;13.584;2023-05-20T11:38:31;102126.09;;;21.48;49.87
23016;BME280;11674;52.428;13.584;2023-05-20T11:43:38;102129.34;;;21.80;49.27
23016;BME280;11674;52.428;13.584;2023-05-20T11:48:55;102116.16;;;22.27;48.90
23016;BME280;11674;52.428;13.584;2023-05-20T11:54:04;102109.47;;;22.86;47.94
23016;BME280;11674;52.428;13.584;2023-05-20T11:59:13;102119.41;;;22.63;48.31
23016;BME280;11674;52.428;13.584;2023-05-20T12:04:20;102105.84;;;22.77;47.24
23016;BME280;11674;52.428;13.584;2023-05-20T12:09:27;102106.38;;;21.99;47.37
23016;BME280;11674;52.428;13.584;2023-05-20T12:14:34;102101.34;;;22.13;47.88
23016;BME280;11674;52.428;13.584;2023-05-20T12:19:41;102096.72;;;22.71;47.33
23016;BME280;11674;52.428;13.584;2023-05-20T12:24:49;102082.09;;;22.98;47.37
23016;BME280;11674;52.428;13.584;2023-05-20T12:29:55;102064.19;;;23.15;47.25
23016;BME280;11674;52.428;13.584;2023-05-20T12:35:03;102077.94;;;22.67;47.21
23016;BME280;11674;52.428;13.584;2023-05-20T12:40:11;102070.59;;;22.66;46.68
23016;BME280;11674;52.428;13.584;2023-05-20T12:45:17;102061.25;;;23.03;46.45
23016;BME280;11674;52.428;13.584;2023-05-20T12:50:24;102047.41;;;23.10;46.01
23016;BME280;11674;52.428;13.584;2023-05-20T12:55:31;102056.84;;;22.56;46.00
23016;BME280;11674;52.428;13.584;2023-05-20T13:00:38;102032.19;;;22.94;45.27
23016;BME280;11674;52.428;13.584;2023-05-20T13:05:45;102027.38;;;23.15;45.49
23016;BME280;11674;52.428;13.584;2023-05-20T13:10:52;102019.69;;;23.77;44.54
23016;BME280;11674;52.428;13.584;2023-05-20T13:15:59;102013.41;;;23.10;44.56
23016;BME280;11674;52.428;13.584;2023-05-20T13:21:06;102001.69;;;22.91;44.68
23016;BME280;11674;52.428;13.584;2023-05-20T13:26:13;101998.28;;;22.77;44.59
23016;BME280;11674;52.428;13.584;2023-05-20T13:31:20;101988.44;;;22.83;44.79
23016;BME280;11674;52.428;13.584;2023-05-20T13:36:27;101969.91;;;22.65;44.75
23016;BME280;11674;52.428;13.584;2023-05-20T13:41:34;101984.81;;;22.53;44.77
23016;BME280;11674;52.428;13.584;2023-05-20T13:46:41;101977.66;;;22.39;45.00
23016;BME280;11674;52.428;13.584;2023-05-20T13:51:48;101968.72;;;22.66;44.72
23016;BME280;11674;52.428;13.584;2023-05-20T13:56:55;101964.94;;;22.62;44.26
23016;BME280;11674;52.428;13.584;2023-05-20T14:02:02;101981.31;;;22.48;44.92
23016;BME280;11674;52.428;13.584;2023-05-20T14:07:09;101971.25;;;22.88;45.00
23016;BME280;11674;52.428;13.584;2023-05-20T14:12:16;101961.25;;;23.52;44.03
23016;BME280;11674;52.428;13.584;2023-05-20T14:17:23;101936.28;;;23.78;43.82
23016;BME280;11674;52.428;13.584;2023-05-20T14:22:30;101950.84;;;23.76;44.21
23016;BME280;11674;52.428;13.584;2023-05-20T14:27:37;101942.56;;;24.16;42.97
23016;BME280;11674;52.428;13.584;2023-05-20T14:32:44;101928.50;;;23.87;43.39
23016;BME280;11674;52.428;13.584;2023-05-20T14:37:51;101918.41;;;23.98;43.88
23016;BME280;11674;52.428;13.584;2023-05-20T14:42:59;101930.72;;;24.14;43.20
23016;BME280;11674;52.428;13.584;2023-05-20T14:48:06;101919.97;;;24.19;43.17
23016;BME280;11674;52.428;13.584;2023-05-20T14:53:13;101919.81;;;24.04;43.02
23016;BME280;11674;52.428;13.584;2023-05-20T14:58:20;101913.81;;;24.17;42.80
23016;BME280;11674;52.428;13.584;2023-05-20T15:03:27;101904.94;;;24.07;42.53
23016;BME280;11674;52.428;13.584;2023-05-20T15:08:34;101910.41;;;24.12;42.79
23016;BME280;11674;52.428;13.584;2023-05-20T15:13:41;101902.09;;;24.55;42.98
23016;BME280;11674;52.428;13.584;2023-05-20T15:18:49;101893.38;;;24.48;42.03
23016;BME280;11674;52.428;13.584;2023-05-20T15:23:56;101892.75;;;23.94;42.79
23016;BME280;11674;52.428;13.584;2023-05-20T15:29:03;101889.56;;;24.08;42.86
23016;BME280;11674;52.428;13.584;2023-05-20T15:34:10;101883.91;;;24.32;42.66
23016;BME280;11674;52.428;13.584;2023-05-20T15:39:17;101878.91;;;24.53;42.53
23016;BME280;11674;52.428;13.584;2023-05-20T15:44:24;101868.66;;;24.36;42.40
23016;BME280;11674;52.428;13.584;2023-05-20T15:49:31;101871.84;;;23.99;42.50
23016;BME280;11674;52.428;13.584;2023-05-20T15:54:38;101877.50;;;23.99;42.92
23016;BME280;11674;52.428;13.584;2023-05-20T15:59:45;101867.34;;;23.98;42.82
23016;BME280;11674;52.428;13.584;2023-05-20T16:04:52;101862.63;;;24.26;42.77
23016;BME280;11674;52.428;13.584;2023-05-20T16:09:59;101856.22;;;24.05;42.55
23016;BME280;11674;52.428;13.584;2023-05-20T16:15:07;101839.84;;;23.98;43.17
23016;BME280;11674;52.428;13.584;2023-05-20T16:20:14;101835.34;;;24.09;42.80
23016;BME280;11674;52.428;13.584;2023-05-20T16:25:21;101834.84;;;24.31;42.71
23016;BME280;11674;52.428;13.584;2023-05-20T16:30:28;101827.59;;;24.70;42.68
23016;BME280;11674;52.428;13.584;2023-05-20T16:35:35;101827.19;;;24.71;42.39
23016;BME280;11674;52.428;13.584;2023-05-20T16:40:42;101828.53;;;24.62;42.40
23016;BME280;11674;52.428;13.584;2023-05-20T16:45:49;101812.81;;;24.52;42.73
23016;BME280;11674;52.428;13.584;2023-05-20T16:50:56;101800.31;;;24.17;42.24
23016;BME280;11674;52.428;13.584;2023-05-20T16:56:07;101799.16;;;23.82;42.95
23016;BME280;11674;52.428;13.584;2023-05-20T17:01:13;101804.81;;;23.82;43.07
23016;BME280;11674;52.428;13.584;2023-05-20T17:06:20;101802.34;;;23.93;42.97
23016;BME280;11674;52.428;13.584;2023-05-20T17:11:27;101800.25;;;23.90;43.27
23016;BME280;11674;52.428;13.584;2023-05-20T17:16:34;101805.13;;;23.57;43.34
23016;BME280;11674;52.428;13.584;2023-05-20T17:21:42;101800.66;;;23.44;43.45
23016;BME280;11674;52.428;13.584;2023-05-20T17:26:49;101802.19;;;23.41;43.54
23016;BME280;11674;52.428;13.584;2023-05-20T17:31:55;101801.94;;;23.34;43.68
23016;BME280;11674;52.428;13.584;2023-05-20T17:37:03;101794.03;;;23.40;43.50
23016;BME280;11674;52.428;13.584;2023-05-20T17:42:15;101801.44;;;23.32;43.53
23016;BME280;11674;52.428;13.584;2023-05-20T17:47:23;101796.47;;;23.17;43.89
23016;BME280;11674;52.428;13.584;2023-05-20T17:52:29;101803.09;;;23.01;44.09
23016;BME280;11674;52.428;13.584;2023-05-20T17:57:36;101797.19;;;22.94;44.14
23016;BME280;11674;52.428;13.584;2023-05-20T18:02:50;101788.28;;;22.83;44.57
23016;BME280;11674;52.428;13.584;2023-05-20T18:07:57;101792.50;;;22.77;44.52
23016;BME280;11674;52.428;13.584;2023-05-20T18:13:04;101809.50;;;22.77;44.50
23016;BME280;11674;52.428;13.584;2023-05-20T18:18:11;101800.41;;;22.72;44.69
23016;BME280;11674;52.428;13.584;2023-05-20T18:23:18;101801.63;;;22.62;44.73
23016;BME280;11674;52.428;13.584;2023-05-20T18:28:25;101816.69;;;22.54;45.05
23016;BME280;11674;52.428;13.584;2023-05-20T18:33:32;101807.22;;;22.50;45.19
23016;BME280;11674;52.428;13.584;2023-05-20T18:38:39;101802.28;;;22.39;45.55
23016;BME280;11674;52.428;13.584;2023-05-20T18:43:47;101802.56;;;22.25;45.60
23016;BME280;11674;52.428;13.584;2023-05-20T18:48:54;101808.97;;;22.14;45.60
23016;BME280;11674;52.428;13.584;2023-05-20T18:54:02;101816.84;;;22.00;45.95
23016;BME280;11674;52.428;13.584;2023-05-20T18:59:08;101820.56;;;21.92;46.01
23016;BME280;11674;52.428;13.584;2023-05-20T19:04:15;101816.81;;;21.79;46.24
23016;BME280;11674;52.428;13.584;2023-05-20T19:09:22;101819.47;;;21.67;46.27
23016;BME280;11674;52.428;13.584;2023-05-20T19:14:29;101832.16;;;21.53;46.55
23016;BME280;11674;52.428;13.584;2023-05-20T19:19:36;101834.53;;;21.42;46.95
23016;BME280;11674;52.428;13.584;2023-05-20T19:24:43;101837.41;;;21.34;46.75
23016;BME280;11674;52.428;13.584;2023-05-20T19:29:50;101838.41;;;21.21;47.12
23016;BME280;11674;52.428;13.584;2023-05-20T19:34:57;101844.56;;;21.14;47.34
23016;BME280;11674;52.428;13.584;2023-05-20T19:40:05;101847.75;;;21.04;47.73
23016;BME280;11674;52.428;13.584;2023-05-20T19:45:11;101852.91;;;20.94;47.91
23016;BME280;11674;52.428;13.584;2023-05-20T19:50:19;101859.34;;;20.86;47.66
23016;BME280;11674;52.428;13.584;2023-05-20T19:55:26;101857.19;;;20.74;47.77
23016;BME280;11674;52.428;13.584;2023-05-20T20:00:48;101862.00;;;20.65;48.55
23016;BME280;11674;52.428;13.584;2023-05-20T20:05:55;101859.69;;;20.59;48.47
23016;BME280;11674;52.428;13.584;2023-05-20T20:11:02;101856.19;;;20.53;48.68
23016;BME280;11674;52.428;13.584;2023-05-20T20:16:09;101849.69;;;20.44;48.78
23016;BME280;11674;52.428;13.584;2023-05-20T20:21:16;101850.19;;;20.38;48.59
23016;BME280;11674;52.428;13.584;2023-05-20T20:26:23;101849.34;;;20.29;48.98
23016;BME280;11674;52.428;13.584;2023-05-20T20:31:30;101859.75;;;20.11;49.33
23016;BME280;11674;52.428;13.584;2023-05-20T20:36:37;101860.00;;;19.93;49.77
23016;BME280;11674;52.428;13.584;2023-05-20T20:41:45;101838.91;;;19.82;50.20
23016;BME280;11674;52.428;13.584;2023-05-20T20:46:52;101852.63;;;19.75;50.27
23016;BME280;11674;52.428;13.584;2023-05-20T20:51:59;101834.06;;;19.65;50.75
23016;BME280;11674;52.428;13.584;2023-05-20T20:57:06;101836.97;;;19.52;50.98
23016;BME280;11674;52.428;13.584;2023-05-20T21:02:13;101842.03;;;19.41;51.14
23016;BME280;11674;52.428;13.584;2023-05-20T21:07:20;101839.81;;;19.30;51.48
23016;BME280;11674;52.428;13.584;2023-05-20T21:12:27;101836.00;;;19.26;51.66
23016;BME280;11674;52.428;13.584;2023-05-20T21:17:34;101820.78;;;19.27;51.66
23016;BME280;11674;52.428;13.584;2023-05-20T21:22:42;101814.63;;;19.25;52.08
23016;BME280;11674;52.428;13.584;2023-05-20T21:27:48;101811.63;;;19.21;52.17
23016;BME280;11674;52.428;13.584;2023-05-20T21:32:55;101808.53;;;19.09;52.28
23016;BME280;11674;52.428;13.584;2023-05-20T21:38:02;101803.38;;;19.03;52.63
23016;BME280;11674;52.428;13.584;2023-05-20T21:43:09;101805.19;;;18.99;52.70
23016;BME280;11674;52.428;13.584;2023-05-20T21:48:17;101797.50;;;18.91;53.07
23016;BME280;11674;52.428;13.584;2023-05-20T21:53:23;101787.72;;;18.88;53.04
23016;BME280;11674;52.428;13.584;2023-05-20T21:58:30;101787.03;;;18.83;53.17
23016;BME280;11674;52.428;13.584;2023-05-20T22:03:37;101777.69;;;18.74;53.70
23016;BME280;11674;52.428;13.584;2023-05-20T22:08:44;101773.38;;;18.68;53.72
23016;BME280;11674;52.428;13.584;2023-05-20T22:13:52;101765.56;;;18.65;53.84
23016;BME280;11674;52.428;13.584;2023-05-20T22:18:58;101772.97;;;18.61;54.08
23016;BME280;11674;52.428;13.584;2023-05-20T22:24:05;101771.13;;;18.56;54.27
23016;BME280;11674;52.428;13.584;2023-05-20T22:29:12;101773.13;;;18.56;54.26
23016;BME280;11674;52.428;13.584;2023-05-20T22:34:19;101772.78;;;18.57;54.68
23016;BME280;11674;52.428;13.584;2023-05-20T22:39:26;101767.16;;;18.57;54.70
23016;BME280;11674;52.428;13.584;2023-05-20T22:44:34;101757.56;;;18.58;54.62
23016;BME280;11674;52.428;13.584;2023-05-20T22:49:40;101756.44;;;18.59;54.57
23016;BME280;11674;52.428;13.584;2023-05-20T22:54:47;101749.13;;;18.58;54.87
23016;BME280;11674;52.428;13.584;2023-05-20T22:59:55;101757.38;;;18.55;55.25
23016;BME280;11674;52.428;13.584;2023-05-20T23:05:02;101739.16;;;18.52;55.43
23016;BME280;11674;52.428;13.584;2023-05-20T23:10:09;101735.84;;;18.50;55.11
23016;BME280;11674;52.428;13.584;2023-05-20T23:15:16;101733.88;;;18.51;55.52
23016;BME280;11674;52.428;13.584;2023-05-20T23:20:23;101737.81;;;18.50;55.25
23016;BME280;11674;52.428;13.584;2023-05-20T23:25:30;101739.81;;;18.49;55.67
23016;BME280;11674;52.428;13.584;2023-05-20T23:30:37;101740.56;;;18.41;55.73
23016;BME280;11674;52.428;13.584;2023-05-20T23:35:44;101736.53;;;18.34;56.14
23016;BME280;11674;52.428;13.584;2023-05-20T23:40:51;101731.16;;;18.24;56.07
23016;BME280;11674;52.428;13.584;2023-05-20T23:45:58;101724.63;;;18.15;56.27
23016;BME280;11674;52.428;13.584;2023-05-20T23:51:05;101728.91;;;18.12;56.56
23016;BME280;11674;52.428;13.584;2023-05-20T23:56:12;101708.53;;;18.07;56.86
